createdAt,value
2018-09-26T00:00:18.275Z,1030.52
2018-09-26T00:01:18.233Z,1030.56
2018-09-26T00:02:18.212Z,1030.61
2018-09-26T00:03:18.201Z,1030.55
2018-09-26T00:04:18.169Z,1030.62
2018-09-26T00:05:18.151Z,1030.54
2018-09-26T00:06:18.129Z,1030.58
2018-09-26T00:07:18.117Z,1030.65
2018-09-26T00:08:18.178Z,1030.62
2018-09-26T00:09:18.070Z,1030.59
2018-09-26T00:10:18.050Z,1030.53
2018-09-26T00:11:18.036Z,1030.50
2018-09-26T00:12:18.006Z,1030.51
2018-09-26T00:13:17.989Z,1030.49
2018-09-26T00:14:17.968Z,1030.46
2018-09-26T00:15:17.943Z,1030.42
2018-09-26T00:16:17.922Z,1030.40
2018-09-26T00:17:17.908Z,1030.38
2018-09-26T00:18:17.881Z,1030.30
2018-09-26T00:19:18.014Z,1030.28
2018-09-26T00:20:17.838Z,1030.25
2018-09-26T00:21:17.821Z,1030.22
2018-09-26T00:22:17.800Z,1030.19
2018-09-26T00:23:17.775Z,1030.13
2018-09-26T00:24:17.756Z,1030.09
2018-09-26T00:25:17.793Z,1030.07
2018-09-26T00:26:17.712Z,1030.07
2018-09-26T00:27:17.695Z,1030.05
2018-09-26T00:28:17.670Z,1030.02
2018-09-26T00:29:17.661Z,1030.06
2018-09-26T00:30:17.634Z,1030.04
2018-09-26T00:31:17.610Z,1030.06
2018-09-26T00:32:17.588Z,1030.07
2018-09-26T00:33:17.566Z,1030.10
2018-09-26T00:34:17.547Z,1030.07
2018-09-26T00:35:17.530Z,1030.10
2018-09-26T00:36:17.622Z,1030.10
2018-09-26T00:37:17.483Z,1030.13
2018-09-26T00:38:17.464Z,1030.14
2018-09-26T00:39:17.447Z,1030.13
2018-09-26T00:40:17.420Z,1030.13
2018-09-26T00:41:17.407Z,1030.13
2018-09-26T00:42:17.381Z,1030.09
2018-09-26T00:43:17.377Z,1030.07
2018-09-26T00:44:17.367Z,1030.11
2018-09-26T00:45:17.324Z,1030.12
2018-09-26T00:46:17.299Z,1030.11
2018-09-26T00:47:17.276Z,1030.13
2018-09-26T00:48:17.266Z,1030.13
2018-09-26T00:49:17.233Z,1030.10
2018-09-26T00:50:17.217Z,1030.10
2018-09-26T00:51:17.202Z,1030.13
2018-09-26T00:52:17.176Z,1030.10
2018-09-26T00:53:17.152Z,1030.04
2018-09-26T00:54:17.138Z,1030.08
2018-09-26T00:55:17.109Z,1030.05
2018-09-26T00:56:17.089Z,1030.03
2018-09-26T00:57:17.070Z,1030.05
2018-09-26T00:58:17.045Z,1030.05
2018-09-26T00:59:17.026Z,1030.04
2018-09-26T01:00:17.004Z,1030.05
2018-09-26T01:01:17.021Z,1030.05
2018-09-26T01:02:16.964Z,1030.05
2018-09-26T01:03:17.056Z,1030.03
2018-09-26T01:04:16.920Z,1030.05
2018-09-26T01:05:16.899Z,1030.02
2018-09-26T01:06:16.879Z,1030.05
2018-09-26T01:07:16.860Z,1030.00
2018-09-26T01:08:16.836Z,1029.99
2018-09-26T01:09:16.818Z,1029.93
2018-09-26T01:10:16.796Z,1029.85
2018-09-26T01:11:16.930Z,1029.78
2018-09-26T01:12:16.758Z,1029.78
2018-09-26T01:13:16.734Z,1029.74
2018-09-26T01:14:16.774Z,1029.78
2018-09-26T01:15:16.700Z,1029.79
2018-09-26T01:16:16.680Z,1029.81
2018-09-26T01:17:16.651Z,1029.79
2018-09-26T01:18:16.630Z,1029.72
2018-09-26T01:19:16.635Z,1029.78
2018-09-26T01:20:16.592Z,1029.69
2018-09-26T01:21:16.568Z,1029.69
2018-09-26T01:22:16.555Z,1029.67
2018-09-26T01:23:16.534Z,1029.63
2018-09-26T01:24:16.506Z,1029.64
2018-09-26T01:25:16.484Z,1029.67
2018-09-26T01:26:16.463Z,1029.62
2018-09-26T01:27:16.442Z,1029.59
2018-09-26T01:28:16.418Z,1029.54
2018-09-26T01:29:16.401Z,1029.52
2018-09-26T01:30:16.385Z,1029.55
2018-09-26T01:31:16.357Z,1029.54
2018-09-26T01:32:16.337Z,1029.50
2018-09-26T01:33:16.338Z,1029.52
2018-09-26T01:34:16.295Z,1029.53
2018-09-26T01:35:16.276Z,1029.45
2018-09-26T01:36:16.300Z,1029.54
2018-09-26T01:37:16.231Z,1029.49
2018-09-26T01:38:16.212Z,1029.49
2018-09-26T01:39:16.192Z,1029.48
2018-09-26T01:40:16.171Z,1029.42
2018-09-26T01:41:16.212Z,1029.44
2018-09-26T01:42:16.126Z,1029.50
2018-09-26T01:43:16.110Z,1029.53
2018-09-26T01:44:16.087Z,1029.53
2018-09-26T01:45:16.066Z,1029.54
2018-09-26T01:46:16.045Z,1029.56
2018-09-26T01:47:16.025Z,1029.60
2018-09-26T01:48:16.005Z,1029.56
2018-09-26T01:49:15.984Z,1029.56
2018-09-26T01:50:15.962Z,1029.53
2018-09-26T01:51:15.944Z,1029.54
2018-09-26T01:52:15.920Z,1029.54
2018-09-26T01:53:15.902Z,1029.56
2018-09-26T01:54:15.882Z,1029.56
2018-09-26T01:55:15.858Z,1029.56
2018-09-26T01:56:15.835Z,1029.56
2018-09-26T01:57:15.816Z,1029.55
2018-09-26T01:58:15.794Z,1029.56
2018-09-26T01:59:15.780Z,1029.52
2018-09-26T02:00:15.760Z,1029.45
2018-09-26T02:01:15.732Z,1029.42
2018-09-26T02:02:15.709Z,1029.41
2018-09-26T02:03:15.703Z,1029.45
2018-09-26T02:04:15.673Z,1029.45
2018-09-26T02:05:15.654Z,1029.46
2018-09-26T02:06:15.738Z,1029.46
2018-09-26T02:07:15.604Z,1029.36
2018-09-26T02:08:15.583Z,1029.38
2018-09-26T02:09:15.663Z,1029.38
2018-09-26T02:10:15.543Z,1029.39
2018-09-26T02:11:15.522Z,1029.44
2018-09-26T02:12:15.499Z,1029.43
2018-09-26T02:13:15.479Z,1029.43
2018-09-26T02:14:15.460Z,1029.38
2018-09-26T02:15:15.438Z,1029.33
2018-09-26T02:16:15.413Z,1029.26
2018-09-26T02:17:15.396Z,1029.25
2018-09-26T02:18:15.375Z,1029.32
2018-09-26T02:19:15.351Z,1029.32
2018-09-26T02:20:15.332Z,1029.30
2018-09-26T02:21:15.311Z,1029.33
2018-09-26T02:22:15.289Z,1029.26
2018-09-26T02:23:15.266Z,1029.27
2018-09-26T02:24:15.248Z,1029.24
2018-09-26T02:25:15.246Z,1029.22
2018-09-26T02:26:15.202Z,1029.25
2018-09-26T02:27:15.181Z,1029.21
2018-09-26T02:28:15.239Z,1029.27
2018-09-26T02:29:15.140Z,1029.27
2018-09-26T02:30:15.121Z,1029.29
2018-09-26T02:31:15.113Z,1029.36
2018-09-26T02:32:15.077Z,1029.30
2018-09-26T02:33:15.059Z,1029.23
2018-09-26T02:34:15.037Z,1029.19
2018-09-26T02:35:15.017Z,1029.09
2018-09-26T02:36:14.998Z,1029.05
2018-09-26T02:37:14.973Z,1029.07
2018-09-26T02:38:14.951Z,1029.05
2018-09-26T02:39:14.935Z,1029.09
2018-09-26T02:40:14.913Z,1029.11
2018-09-26T02:41:14.887Z,1029.09
2018-09-26T02:42:14.867Z,1029.13
2018-09-26T02:43:14.845Z,1029.07
2018-09-26T02:44:14.828Z,1029.07
2018-09-26T02:45:14.803Z,1029.09
2018-09-26T02:46:14.790Z,1029.11
2018-09-26T02:47:14.758Z,1029.10
2018-09-26T02:48:14.736Z,1029.16
2018-09-26T02:49:14.717Z,1029.20
2018-09-26T02:50:14.697Z,1029.21
2018-09-26T02:51:14.676Z,1029.25
2018-09-26T02:52:14.656Z,1029.29
2018-09-26T02:53:14.631Z,1029.23
2018-09-26T02:54:14.617Z,1029.21
2018-09-26T02:55:14.600Z,1029.20
2018-09-26T02:56:14.576Z,1029.15
2018-09-26T02:57:14.546Z,1029.12
2018-09-26T02:58:14.646Z,1029.12
2018-09-26T02:59:14.505Z,1029.08
2018-09-26T03:00:14.486Z,1029.03
2018-09-26T03:01:14.517Z,1028.97
2018-09-26T03:02:14.440Z,1029.01
2018-09-26T03:03:14.421Z,1029.01
2018-09-26T03:04:14.398Z,1029.04
2018-09-26T03:05:14.376Z,1029.02
2018-09-26T03:06:14.355Z,1029.06
2018-09-26T03:07:14.337Z,1029.01
2018-09-26T03:08:14.335Z,1029.00
2018-09-26T03:09:14.290Z,1029.02
2018-09-26T03:10:14.279Z,1029.01
2018-09-26T03:11:14.248Z,1029.00
2018-09-26T03:12:14.227Z,1028.96
2018-09-26T03:13:14.205Z,1028.91
2018-09-26T03:14:14.187Z,1028.88
2018-09-26T03:15:14.162Z,1028.83
2018-09-26T03:16:14.140Z,1028.90
2018-09-26T03:17:14.227Z,1028.89
2018-09-26T03:18:14.100Z,1028.95
2018-09-26T03:19:14.079Z,1028.93
2018-09-26T03:20:14.122Z,1028.91
2018-09-26T03:21:14.032Z,1028.87
2018-09-26T03:22:14.013Z,1028.91
2018-09-26T03:23:13.992Z,1028.93
2018-09-26T03:24:13.972Z,1028.93
2018-09-26T03:25:13.957Z,1028.96
2018-09-26T03:26:13.926Z,1028.96
2018-09-26T03:27:13.905Z,1029.04
2018-09-26T03:28:13.883Z,1029.07
2018-09-26T03:29:13.863Z,1029.10
2018-09-26T03:30:13.844Z,1029.16
2018-09-26T03:31:13.821Z,1029.11
2018-09-26T03:32:13.798Z,1029.08
2018-09-26T03:33:13.777Z,1029.07
2018-09-26T03:34:13.764Z,1029.07
2018-09-26T03:35:13.741Z,1029.13
2018-09-26T03:36:13.712Z,1029.13
2018-09-26T03:37:13.700Z,1029.13
2018-09-26T03:38:13.674Z,1029.09
2018-09-26T03:39:13.655Z,1029.12
2018-09-26T03:40:13.624Z,1029.09
2018-09-26T03:41:13.606Z,1029.05
2018-09-26T03:42:13.592Z,1029.11
2018-09-26T03:43:13.563Z,1029.12
2018-09-26T03:44:13.541Z,1029.09
2018-09-26T03:45:13.522Z,1029.02
2018-09-26T03:46:13.501Z,1028.95
2018-09-26T03:47:13.477Z,1028.92
2018-09-26T03:48:13.454Z,1028.86
2018-09-26T03:49:13.435Z,1028.89
2018-09-26T03:50:13.561Z,1028.89
2018-09-26T03:51:13.391Z,1028.83
2018-09-26T03:52:13.371Z,1028.82
2018-09-26T03:53:13.347Z,1028.80
2018-09-26T03:54:13.326Z,1028.77
2018-09-26T03:55:13.304Z,1028.80
2018-09-26T03:56:13.290Z,1028.81
2018-09-26T03:57:13.261Z,1028.87
2018-09-26T03:58:13.246Z,1028.83
2018-09-26T03:59:13.221Z,1028.83
2018-09-26T04:00:13.199Z,1028.81
2018-09-26T04:01:13.174Z,1028.82
2018-09-26T04:02:13.160Z,1028.81
2018-09-26T04:03:13.134Z,1028.81
2018-09-26T04:04:13.109Z,1028.82
2018-09-26T04:05:13.091Z,1028.78
2018-09-26T04:06:13.069Z,1028.74
2018-09-26T04:07:13.045Z,1028.69
2018-09-26T04:08:13.024Z,1028.69
2018-09-26T04:09:13.005Z,1028.62
2018-09-26T04:10:12.984Z,1028.64
2018-09-26T04:11:12.960Z,1028.67
2018-09-26T04:12:12.935Z,1028.69
2018-09-26T04:13:13.040Z,1028.70
2018-09-26T04:14:12.902Z,1028.68
2018-09-26T04:15:13.021Z,1028.68
2018-09-26T04:16:12.851Z,1028.65
2018-09-26T04:17:12.829Z,1028.63
2018-09-26T04:18:12.859Z,1028.65
2018-09-26T04:19:12.789Z,1028.57
2018-09-26T04:20:12.811Z,1028.62
2018-09-26T04:21:12.744Z,1028.56
2018-09-26T04:22:12.724Z,1028.61
2018-09-26T04:23:12.781Z,1028.59
2018-09-26T04:24:12.677Z,1028.60
2018-09-26T04:25:12.657Z,1028.58
2018-09-26T04:26:12.884Z,1028.58
2018-09-26T04:27:12.779Z,1028.59
2018-09-26T04:28:12.593Z,1028.62
2018-09-26T04:29:12.591Z,1028.68
2018-09-26T04:30:12.588Z,1028.65
2018-09-26T04:31:12.533Z,1028.61
2018-09-26T04:32:12.513Z,1028.57
2018-09-26T04:33:12.687Z,1028.62
2018-09-26T04:34:12.473Z,1028.56
2018-09-26T04:35:12.442Z,1028.54
2018-09-26T04:36:12.420Z,1028.54
2018-09-26T04:37:12.403Z,1028.52
2018-09-26T04:38:12.377Z,1028.53
2018-09-26T04:39:12.355Z,1028.55
2018-09-26T04:40:12.336Z,1028.56
2018-09-26T04:41:12.321Z,1028.55
2018-09-26T04:42:12.307Z,1028.61
2018-09-26T04:43:12.286Z,1028.60
2018-09-26T04:44:12.247Z,1028.60
2018-09-26T04:45:12.239Z,1028.59
2018-09-26T04:46:12.207Z,1028.63
2018-09-26T04:47:12.188Z,1028.63
2018-09-26T04:48:12.290Z,1028.66
2018-09-26T04:49:12.143Z,1028.64
2018-09-26T04:50:12.119Z,1028.59
2018-09-26T04:51:12.098Z,1028.59
2018-09-26T04:52:12.075Z,1028.56
2018-09-26T04:53:12.066Z,1028.56
2018-09-26T04:54:12.057Z,1028.56
2018-09-26T04:55:12.020Z,1028.53
2018-09-26T04:56:12.001Z,1028.49
2018-09-26T04:57:11.969Z,1028.50
2018-09-26T04:58:11.959Z,1028.47
2018-09-26T04:59:11.924Z,1028.48
2018-09-26T05:00:11.913Z,1028.53
2018-09-26T05:01:11.884Z,1028.49
2018-09-26T05:02:11.860Z,1028.47
2018-09-26T05:03:11.840Z,1028.49
2018-09-26T05:04:11.817Z,1028.51
2018-09-26T05:05:11.796Z,1028.55
2018-09-26T05:06:11.774Z,1028.56
2018-09-26T05:07:11.816Z,1028.55
2018-09-26T05:08:11.748Z,1028.56
2018-09-26T05:09:11.713Z,1028.56
2018-09-26T05:10:11.695Z,1028.57
2018-09-26T05:11:11.667Z,1028.56
2018-09-26T05:12:11.648Z,1028.56
2018-09-26T05:13:11.626Z,1028.57
2018-09-26T05:14:11.602Z,1028.59
2018-09-26T05:15:11.585Z,1028.64
2018-09-26T05:16:11.561Z,1028.57
2018-09-26T05:17:11.540Z,1028.55
2018-09-26T05:18:11.652Z,1028.52
2018-09-26T05:19:11.498Z,1028.51
2018-09-26T05:20:11.485Z,1028.50
2018-09-26T05:21:11.512Z,1028.48
2018-09-26T05:22:11.433Z,1028.45
2018-09-26T05:23:11.478Z,1028.51
2018-09-26T05:24:11.403Z,1028.52
2018-09-26T05:25:11.374Z,1028.55
2018-09-26T05:26:11.350Z,1028.56
2018-09-26T05:27:11.329Z,1028.55
2018-09-26T05:28:11.307Z,1028.54
2018-09-26T05:29:11.282Z,1028.59
2018-09-26T05:30:11.290Z,1028.53
2018-09-26T05:31:11.261Z,1028.54
2018-09-26T05:32:11.227Z,1028.54
2018-09-26T05:33:11.203Z,1028.56
2018-09-26T05:34:11.195Z,1028.58
2018-09-26T05:35:11.157Z,1028.65
2018-09-26T05:36:11.141Z,1028.62
2018-09-26T05:37:11.116Z,1028.60
2018-09-26T05:38:11.093Z,1028.64
2018-09-26T05:39:11.074Z,1028.53
2018-09-26T05:40:11.055Z,1028.55
2018-09-26T05:41:11.032Z,1028.53
2018-09-26T05:42:11.015Z,1028.48
2018-09-26T05:43:10.997Z,1028.48
2018-09-26T05:44:10.964Z,1028.47
2018-09-26T05:45:10.946Z,1028.48
2018-09-26T05:46:10.926Z,1028.42
2018-09-26T05:47:10.901Z,1028.42
2018-09-26T05:48:10.882Z,1028.40
2018-09-26T05:49:10.860Z,1028.42
2018-09-26T05:50:10.937Z,1028.49
2018-09-26T05:51:10.816Z,1028.48
2018-09-26T05:52:10.802Z,1028.51
2018-09-26T05:53:10.776Z,1028.49
2018-09-26T05:54:10.761Z,1028.50
2018-09-26T05:55:10.731Z,1028.52
2018-09-26T05:56:10.713Z,1028.56
2018-09-26T05:57:10.690Z,1028.58
2018-09-26T05:58:10.679Z,1028.52
2018-09-26T05:59:10.678Z,1028.52
2018-09-26T06:00:10.626Z,1028.54
2018-09-26T06:01:10.605Z,1028.50
2018-09-26T06:02:10.583Z,1028.56
2018-09-26T06:03:10.563Z,1028.52
2018-09-26T06:04:10.539Z,1028.55
2018-09-26T06:05:10.521Z,1028.52
2018-09-26T06:06:10.499Z,1028.57
2018-09-26T06:07:10.488Z,1028.60
2018-09-26T06:08:10.456Z,1028.53
2018-09-26T06:09:10.444Z,1028.48
2018-09-26T06:10:10.467Z,1028.39
2018-09-26T06:11:10.392Z,1028.36
2018-09-26T06:12:10.377Z,1028.34
2018-09-26T06:13:10.366Z,1028.36
2018-09-26T06:14:10.337Z,1028.39
2018-09-26T06:15:10.309Z,1028.41
2018-09-26T06:16:10.290Z,1028.42
2018-09-26T06:17:10.265Z,1028.39
2018-09-26T06:18:10.245Z,1028.32
2018-09-26T06:19:10.226Z,1028.28
2018-09-26T06:20:10.202Z,1028.22
2018-09-26T06:21:10.182Z,1028.23
2018-09-26T06:22:10.160Z,1028.25
2018-09-26T06:23:10.144Z,1028.28
2018-09-26T06:24:10.121Z,1028.24
2018-09-26T06:25:10.101Z,1028.25
2018-09-26T06:26:10.080Z,1028.25
2018-09-26T06:27:10.060Z,1028.22
2018-09-26T06:28:10.044Z,1028.23
2018-09-26T06:29:10.013Z,1028.31
2018-09-26T06:30:09.995Z,1028.29
2018-09-26T06:31:09.974Z,1028.32
2018-09-26T06:32:09.962Z,1028.27
2018-09-26T06:33:09.938Z,1028.23
2018-09-26T06:34:09.925Z,1028.22
2018-09-26T06:35:09.919Z,1028.15
2018-09-26T06:36:09.868Z,1028.17
2018-09-26T06:37:09.854Z,1028.19
2018-09-26T06:38:09.878Z,1028.18
2018-09-26T06:39:09.818Z,1028.20
2018-09-26T06:40:09.798Z,1028.26
2018-09-26T06:41:09.772Z,1028.29
2018-09-26T06:42:09.741Z,1028.30
2018-09-26T06:43:09.722Z,1028.30
2018-09-26T06:44:09.702Z,1028.32
2018-09-26T06:45:09.681Z,1028.32
2018-09-26T06:46:09.666Z,1028.30
2018-09-26T06:47:09.642Z,1028.27
2018-09-26T06:48:09.631Z,1028.23
2018-09-26T06:49:09.608Z,1028.21
2018-09-26T06:50:09.586Z,1028.16
2018-09-26T06:51:09.559Z,1028.20
2018-09-26T06:52:09.540Z,1028.23
2018-09-26T06:53:09.519Z,1028.28
2018-09-26T06:54:09.615Z,1028.27
2018-09-26T06:55:09.486Z,1028.30
2018-09-26T06:56:09.473Z,1028.26
2018-09-26T06:57:09.445Z,1028.22
2018-09-26T06:58:09.420Z,1028.22
2018-09-26T06:59:09.398Z,1028.27
2018-09-26T07:00:09.427Z,1028.30
2018-09-26T07:01:09.355Z,1028.27
2018-09-26T07:02:09.369Z,1028.26
2018-09-26T07:03:09.318Z,1028.27
2018-09-26T07:04:09.300Z,1028.27
2018-09-26T07:05:09.384Z,1028.28
2018-09-26T07:06:09.260Z,1028.31
2018-09-26T07:07:09.244Z,1028.30
2018-09-26T07:08:09.219Z,1028.28
2018-09-26T07:09:09.198Z,1028.33
2018-09-26T07:10:09.200Z,1028.31
2018-09-26T07:11:09.158Z,1028.36
2018-09-26T07:12:09.183Z,1028.39
2018-09-26T07:13:09.118Z,1028.44
2018-09-26T07:14:09.100Z,1028.41
2018-09-26T07:15:09.079Z,1028.43
2018-09-26T07:16:09.057Z,1028.42
2018-09-26T07:17:09.040Z,1028.39
2018-09-26T07:18:09.030Z,1028.38
2018-09-26T07:19:09.000Z,1028.42
2018-09-26T07:20:08.985Z,1028.41
2018-09-26T07:21:08.968Z,1028.39
2018-09-26T07:22:08.942Z,1028.45
2018-09-26T07:23:08.926Z,1028.43
2018-09-26T07:24:09.024Z,1028.41
2018-09-26T07:25:08.883Z,1028.39
2018-09-26T07:26:08.865Z,1028.36
2018-09-26T07:27:08.853Z,1028.42
2018-09-26T07:28:08.824Z,1028.41
2018-09-26T07:29:08.812Z,1028.47
2018-09-26T07:30:08.800Z,1028.46
2018-09-26T07:31:08.773Z,1028.50
2018-09-26T07:32:08.798Z,1028.48
2018-09-26T07:33:08.733Z,1028.44
2018-09-26T07:34:08.710Z,1028.40
2018-09-26T07:35:08.699Z,1028.39
2018-09-26T07:36:08.684Z,1028.41
2018-09-26T07:37:08.653Z,1028.37
2018-09-26T07:38:08.633Z,1028.38
2018-09-26T07:39:08.623Z,1028.41
2018-09-26T07:40:08.595Z,1028.44
2018-09-26T07:41:08.582Z,1028.47
2018-09-26T07:42:08.558Z,1028.45
2018-09-26T07:43:08.535Z,1028.45
2018-09-26T07:44:08.525Z,1028.47
2018-09-26T07:45:08.507Z,1028.44
2018-09-26T07:46:08.483Z,1028.44
2018-09-26T07:47:08.460Z,1028.41
2018-09-26T07:48:08.449Z,1028.43
2018-09-26T07:49:08.422Z,1028.37
2018-09-26T07:50:08.407Z,1028.40
2018-09-26T07:51:08.386Z,1028.38
2018-09-26T07:52:08.365Z,1028.35
2018-09-26T07:53:08.384Z,1028.31
2018-09-26T07:54:08.339Z,1028.35
2018-09-26T07:55:08.328Z,1028.38
2018-09-26T07:56:08.296Z,1028.37
2018-09-26T07:57:08.279Z,1028.38
2018-09-26T07:58:08.252Z,1028.45
2018-09-26T07:59:08.294Z,1028.46
2018-09-26T08:00:08.226Z,1028.45
2018-09-26T08:01:08.197Z,1028.50
2018-09-26T08:02:08.179Z,1028.44
2018-09-26T08:03:08.157Z,1028.45
2018-09-26T08:04:08.140Z,1028.41
2018-09-26T08:05:08.124Z,1028.34
2018-09-26T08:06:08.106Z,1028.39
2018-09-26T08:07:08.104Z,1028.31
2018-09-26T08:08:08.070Z,1028.40
2018-09-26T08:09:08.051Z,1028.38
2018-09-26T08:10:08.030Z,1028.35
2018-09-26T08:11:08.031Z,1028.38
2018-09-26T08:12:07.994Z,1028.41
2018-09-26T08:13:07.975Z,1028.44
2018-09-26T08:14:07.958Z,1028.47
2018-09-26T08:15:07.950Z,1028.44
2018-09-26T08:16:07.977Z,1028.48
2018-09-26T08:17:07.905Z,1028.46
2018-09-26T08:18:07.915Z,1028.44
2018-09-26T08:19:07.888Z,1028.48
2018-09-26T08:20:07.854Z,1028.50
2018-09-26T08:21:07.839Z,1028.52
2018-09-26T08:22:07.812Z,1028.52
2018-09-26T08:23:07.794Z,1028.55
2018-09-26T08:24:07.931Z,1028.57
2018-09-26T08:25:07.759Z,1028.56
2018-09-26T08:26:07.752Z,1028.61
2018-09-26T08:27:07.786Z,1028.66
2018-09-26T08:28:07.712Z,1028.68
2018-09-26T08:29:07.686Z,1028.68
2018-09-26T08:30:07.683Z,1028.63
2018-09-26T08:31:07.658Z,1028.66
2018-09-26T08:32:07.639Z,1028.66
2018-09-26T08:33:07.614Z,1028.67
2018-09-26T08:34:07.599Z,1028.68
2018-09-26T08:35:07.584Z,1028.76
2018-09-26T08:36:07.570Z,1028.72
2018-09-26T08:37:07.549Z,1028.77
2018-09-26T08:38:07.526Z,1028.79
2018-09-26T08:39:07.511Z,1028.77
2018-09-26T08:40:07.497Z,1028.82
2018-09-26T08:41:07.477Z,1028.81
2018-09-26T08:42:07.465Z,1028.81
2018-09-26T08:43:07.460Z,1028.80
2018-09-26T08:44:07.419Z,1028.82
2018-09-26T08:45:07.405Z,1028.85
2018-09-26T08:46:07.418Z,1028.86
2018-09-26T08:47:07.377Z,1028.89
2018-09-26T08:48:07.352Z,1028.93
2018-09-26T08:49:07.386Z,1028.86
2018-09-26T08:50:07.324Z,1028.84
2018-09-26T08:51:07.307Z,1028.86
2018-09-26T08:52:07.291Z,1028.80
2018-09-26T08:53:07.262Z,1028.82
2018-09-26T08:54:07.249Z,1028.84
2018-09-26T08:55:07.232Z,1028.84
2018-09-26T08:56:07.211Z,1028.90
2018-09-26T08:57:07.195Z,1028.86
2018-09-26T08:58:07.180Z,1028.87
2018-09-26T08:59:07.161Z,1028.88
2018-09-26T09:00:07.147Z,1028.86
2018-09-26T09:01:07.131Z,1028.87
2018-09-26T09:02:07.112Z,1028.80
2018-09-26T09:03:07.105Z,1028.86
2018-09-26T09:04:07.083Z,1028.84
2018-09-26T09:05:07.115Z,1028.85
2018-09-26T09:06:07.060Z,1028.84
2018-09-26T09:07:07.025Z,1028.84
2018-09-26T09:08:07.022Z,1028.87
2018-09-26T09:09:07.002Z,1028.76
2018-09-26T09:10:06.980Z,1028.81
2018-09-26T09:11:06.965Z,1028.79
2018-09-26T09:12:06.956Z,1028.77
2018-09-26T09:13:07.003Z,1028.78
2018-09-26T09:14:06.924Z,1028.80
2018-09-26T09:15:06.898Z,1028.79
2018-09-26T09:16:06.912Z,1028.83
2018-09-26T09:17:06.866Z,1028.81
2018-09-26T09:18:06.858Z,1028.78
2018-09-26T09:19:06.834Z,1028.79
2018-09-26T09:20:06.820Z,1028.80
2018-09-26T09:21:06.804Z,1028.81
2018-09-26T09:22:06.794Z,1028.77
2018-09-26T09:23:06.778Z,1028.83
2018-09-26T09:24:06.765Z,1028.83
2018-09-26T09:25:06.740Z,1028.80
2018-09-26T09:26:06.761Z,1028.84
2018-09-26T09:27:06.765Z,1028.79
2018-09-26T09:28:06.702Z,1028.79
2018-09-26T09:29:06.681Z,1028.81
2018-09-26T09:30:06.666Z,1028.83
2018-09-26T09:31:06.662Z,1028.82
2018-09-26T09:32:06.707Z,1028.83
2018-09-26T09:33:06.619Z,1028.84
2018-09-26T09:34:06.603Z,1028.80
2018-09-26T09:35:06.638Z,1028.80
2018-09-26T09:36:06.577Z,1028.82
2018-09-26T09:37:06.557Z,1028.78
2018-09-26T09:38:06.568Z,1028.76
2018-09-26T09:39:06.530Z,1028.77
2018-09-26T09:40:06.512Z,1028.88
2018-09-26T09:41:06.516Z,1028.84
2018-09-26T09:42:06.482Z,1028.82
2018-09-26T09:43:06.470Z,1028.80
2018-09-26T09:44:06.590Z,1028.75
2018-09-26T09:45:06.440Z,1028.79
2018-09-26T09:46:06.426Z,1028.77
2018-09-26T09:47:06.410Z,1028.74
2018-09-26T09:48:06.580Z,1028.73
2018-09-26T09:49:06.394Z,1028.73
2018-09-26T09:50:06.375Z,1028.73
2018-09-26T09:51:06.515Z,1028.76
2018-09-26T09:52:06.336Z,1028.70
2018-09-26T09:53:06.324Z,1028.71
2018-09-26T09:54:06.312Z,1028.71
2018-09-26T09:55:06.349Z,1028.71
2018-09-26T09:56:06.299Z,1028.72
2018-09-26T09:57:06.267Z,1028.75
2018-09-26T09:58:06.253Z,1028.72
2018-09-26T09:59:06.239Z,1028.75
2018-09-26T10:00:06.222Z,1028.76
2018-09-26T10:01:06.213Z,1028.75
2018-09-26T10:02:06.248Z,1028.76
2018-09-26T10:03:06.338Z,1028.76
2018-09-26T10:04:06.165Z,1028.68
2018-09-26T10:05:06.152Z,1028.72
2018-09-26T10:06:06.138Z,1028.73
2018-09-26T10:07:06.125Z,1028.75
2018-09-26T10:08:06.126Z,1028.69
2018-09-26T10:09:06.101Z,1028.64
2018-09-26T10:10:06.090Z,1028.68
2018-09-26T10:11:06.074Z,1028.62
2018-09-26T10:12:06.058Z,1028.63
2018-09-26T10:13:06.046Z,1028.60
2018-09-26T10:14:06.093Z,1028.65
2018-09-26T10:15:06.027Z,1028.66
2018-09-26T10:16:06.006Z,1028.64
2018-09-26T10:17:05.993Z,1028.61
2018-09-26T10:18:05.997Z,1028.60
2018-09-26T10:19:05.969Z,1028.54
2018-09-26T10:20:05.999Z,1028.52
2018-09-26T10:21:05.940Z,1028.51
2018-09-26T10:22:05.925Z,1028.51
2018-09-26T10:23:05.924Z,1028.44
2018-09-26T10:24:05.906Z,1028.46
2018-09-26T10:25:05.939Z,1028.45
2018-09-26T10:26:05.927Z,1028.53
2018-09-26T10:27:05.862Z,1028.53
2018-09-26T10:28:05.854Z,1028.52
2018-09-26T10:29:05.834Z,1028.49
2018-09-26T10:30:05.826Z,1028.52
2018-09-26T10:31:05.989Z,1028.57
2018-09-26T10:32:05.828Z,1028.53
2018-09-26T10:33:05.789Z,1028.55
2018-09-26T10:34:05.769Z,1028.54
2018-09-26T10:35:05.822Z,1028.50
2018-09-26T10:36:05.752Z,1028.52
2018-09-26T10:37:05.734Z,1028.50
2018-09-26T10:38:05.747Z,1028.46
2018-09-26T10:39:05.708Z,1028.53
2018-09-26T10:40:05.694Z,1028.48
2018-09-26T10:41:05.696Z,1028.49
2018-09-26T10:42:05.672Z,1028.46
2018-09-26T10:43:05.655Z,1028.47
2018-09-26T10:44:05.710Z,1028.42
2018-09-26T10:45:05.639Z,1028.42
2018-09-26T10:46:05.618Z,1028.38
2018-09-26T10:47:05.604Z,1028.40
2018-09-26T10:48:05.600Z,1028.41
2018-09-26T10:49:05.581Z,1028.45
2018-09-26T10:50:05.594Z,1028.40
2018-09-26T10:51:05.568Z,1028.43
2018-09-26T10:52:05.546Z,1028.36
2018-09-26T10:53:05.535Z,1028.39
2018-09-26T10:54:05.528Z,1028.40
2018-09-26T10:55:05.534Z,1028.39
2018-09-26T10:56:05.553Z,1028.35
2018-09-26T10:57:05.484Z,1028.37
2018-09-26T10:58:05.536Z,1028.29
2018-09-26T10:59:05.459Z,1028.34
2018-09-26T11:00:05.463Z,1028.34
2018-09-26T11:01:05.453Z,1028.34
2018-09-26T11:02:05.499Z,1028.31
2018-09-26T11:03:05.417Z,1028.28
2018-09-26T11:04:05.424Z,1028.31
2018-09-26T11:05:05.397Z,1028.32
2018-09-26T11:06:05.385Z,1028.31
2018-09-26T11:07:05.371Z,1028.30
2018-09-26T11:08:05.414Z,1028.29
2018-09-26T11:09:05.345Z,1028.24
2018-09-26T11:10:05.374Z,1028.23
2018-09-26T11:11:05.328Z,1028.20
2018-09-26T11:12:05.308Z,1028.21
2018-09-26T11:13:05.303Z,1028.21
2018-09-26T11:14:05.485Z,1028.22
2018-09-26T11:15:05.292Z,1028.19
2018-09-26T11:16:05.299Z,1028.17
2018-09-26T11:17:05.254Z,1028.17
2018-09-26T11:18:05.244Z,1028.13
2018-09-26T11:19:05.226Z,1028.09
2018-09-26T11:20:05.227Z,1028.09
2018-09-26T11:21:05.262Z,1028.12
2018-09-26T11:22:05.196Z,1028.10
2018-09-26T11:23:05.182Z,1028.08
2018-09-26T11:24:05.164Z,1028.10
2018-09-26T11:25:05.154Z,1028.18
2018-09-26T11:26:05.157Z,1028.20
2018-09-26T11:27:05.134Z,1028.25
2018-09-26T11:28:05.124Z,1028.25
2018-09-26T11:29:05.111Z,1028.31
2018-09-26T11:30:05.127Z,1028.34
2018-09-26T11:31:05.098Z,1028.33
2018-09-26T11:32:05.091Z,1028.37
2018-09-26T11:33:05.065Z,1028.31
2018-09-26T11:34:05.051Z,1028.38
2018-09-26T11:35:05.048Z,1028.41
2018-09-26T11:36:05.030Z,1028.33
2018-09-26T11:37:05.034Z,1028.28
2018-09-26T11:38:05.004Z,1028.34
2018-09-26T11:39:04.994Z,1028.37
2018-09-26T11:40:04.995Z,1028.36
2018-09-26T11:41:04.978Z,1028.30
2018-09-26T11:42:04.957Z,1028.30
2018-09-26T11:43:04.946Z,1028.28
2018-09-26T11:44:04.990Z,1028.09
2018-09-26T11:45:04.933Z,1027.93
2018-09-26T11:46:04.964Z,1027.89
2018-09-26T11:47:04.915Z,1027.93
2018-09-26T11:48:04.896Z,1027.86
2018-09-26T11:49:04.872Z,1027.82
2018-09-26T11:50:04.870Z,1027.82
2018-09-26T11:51:04.852Z,1027.73
2018-09-26T11:52:04.838Z,1027.74
2018-09-26T11:53:04.823Z,1027.75
2018-09-26T11:54:04.821Z,1027.73
2018-09-26T11:55:04.798Z,1027.69
2018-09-26T11:56:04.890Z,1027.66
2018-09-26T11:57:04.775Z,1027.65
2018-09-26T11:58:04.798Z,1027.64
2018-09-26T11:59:04.756Z,1027.60
2018-09-26T12:00:04.742Z,1027.60
2018-09-26T12:01:04.722Z,1027.57
2018-09-26T12:02:04.815Z,1027.60
2018-09-26T12:03:04.695Z,1027.52
2018-09-26T12:04:04.689Z,1027.57
2018-09-26T12:05:04.670Z,1027.53